Dripping Springs' Hourly Summary for Sunday, March 19, 2017
Hour Temp
(f)
RH
(%)
Solar Rad.
(MJ/m2)
Rainfall
(in)
Wind
(mph)
3/19/2017 12:00 AM 66 99 0 0 4.19
3/19/2017 1:00 AM 65 100 0 0 4.27
3/19/2017 2:00 AM 64 100 0 0 4.92
3/19/2017 3:00 AM 63 100 0 0 4.48
3/19/2017 4:00 AM 63 100 0 0 3.96
3/19/2017 5:00 AM 63 100 0 0 4.92
3/19/2017 6:00 AM 63 100 0 0 5.47
3/19/2017 7:00 AM 63 100 0 0 3.95
3/19/2017 8:00 AM 63 100 0.01 0 4.8
3/19/2017 9:00 AM 63 100 0.22 0 4.63
3/19/2017 10:00 AM 65 99 0.55 0 5.64
3/19/2017 11:00 AM 68 86 1.52 0 6.99
3/19/2017 12:00 PM 71 71 2.55 0 6.58
3/19/2017 1:00 PM 74 60 2.99 0 7.44
3/19/2017 2:00 PM 77 51 3.13 0 7.65
3/19/2017 3:00 PM 78 50 3.03 0 8.28
3/19/2017 4:00 PM 79 44 2.71 0 7.56
3/19/2017 5:00 PM 80 43 2.19 0 8.33
3/19/2017 6:00 PM 80 45 1.02 0 8.21
3/19/2017 7:00 PM 79 47 0.64 0 8.18
3/19/2017 8:00 PM 76 53 0.12 0 5.05
3/19/2017 9:00 PM 71 64 0 0 3.15
3/19/2017 10:00 PM 69 76 0 0 3.44
3/19/2017 11:00 PM 68 79 0 0 2.59
Data Summary 69 77 20.68 0.00 5.61